Goetsenhoven, Belgium

3:54 AM CET on December 22, 2014 (GMT +0100)
IRGIONWA10 | Change Station
CLOSE
Current Station
Personal Weather Station
Location: Jodoigne, ReGION WALLONNE
Elevation: 256 ft
Nearby Weather Stations

Elev 256 ft 50.73 °N, 4.87 °E | Updated 4 minutes ago

Mostly Cloudy
Mostly Cloudy
47.0 °F
Feels Like 43 °F
N
9.0
Wind Variable Wind from SW
Gusts 15.0 mph

Today
High -- | Low -- °F
--% Chance of Precip.
Yesterday
High -- | Low -- °F
Precip. -- in
8:40 AM 4:37 PM
New Moon, 0% visible
Pressure 30.18 in
Visibility 6.2 miles
Clouds Mostly Cloudy 1400 ft
Mostly Cloudy 1700 ft
Windchill 43 °F
Dew Point 44 °F
Humidity 90%
Rainfall 0.00 in
Snow Depth Not available.
UV 0.0 out of 12
Pollen Not available.
Air Quality Not available.
Flu Activity Not available.
METAR EBBR 220220Z 23023G34KT 9999 BKN014 BKN017 09/06 Q1022 TEMPO 23026G36KT

More Conditions Fewer Conditions

Pressure 30.18 in
Visibility 6.2 miles
Clouds Mostly Cloudy 1400 ft
Mostly Cloudy 1700 ft
Windchill 43 °F
Dew Point 44 °F
Humidity 90%
Rainfall 0.00 in
Snow Depth Not available.
UV 0.0 out of 12
Pollen Not available.
Air Quality Not available.
Flu Activity Not available.
METAR EBBR 220220Z 23023G34KT 9999 BKN014 BKN017 09/06 Q1022 TEMPO 23026G36KT

More Conditions Fewer Conditions

10-Day Weather Forecast

Almanac

Astronomy

Dec. 22, 2014 Rise Set
Actual Time
Civil Twilight
Nautical Twilight
Astronomical Twilight
Moon
Length of Visible Light
Length of Day
Tomorrow will be .
, % of the Moon is Illuminated

Today's Extremes

Country Highs Country Lows

Community

WunderPhotos

Upload Photos

1,779,528 photos uploaded!

WunderBlogs® & News

Nearby

Air Quality

  Air Quality AQ Index Pollutant
Not available.

Snow Depth

Station Depth Elevation

Earthquake Activity

City Distance Mag. Time & Date
Minimum magnitude displayed is 2.5.

Coastal Water Temperatures

Place Temperature

Nearby Weather Stations